createdAt,value
2019-05-07T00:01:03.644Z,67.93
2019-05-07T00:03:33.343Z,68.10
2019-05-07T00:06:03.259Z,68.15
2019-05-07T00:08:33.048Z,68.11
2019-05-07T00:11:02.950Z,68.31
2019-05-07T00:13:33.327Z,68.28
2019-05-07T00:16:03.249Z,68.12
2019-05-07T00:18:32.977Z,67.71
2019-05-07T00:21:03.515Z,67.78
2019-05-07T00:23:33.388Z,67.55
2019-05-07T00:26:04.066Z,67.84
2019-05-07T00:28:34.556Z,67.92
2019-05-07T00:31:04.263Z,68.18
2019-05-07T00:33:35.164Z,68.21
2019-05-07T00:36:09.154Z,68.21
2019-05-07T00:38:45.899Z,68.13
2019-05-07T00:41:22.936Z,68.45
2019-05-07T00:43:54.220Z,68.42
2019-05-07T00:46:25.816Z,68.51
2019-05-07T00:48:55.513Z,68.57
2019-05-07T00:51:33.354Z,68.43
2019-05-07T00:54:06.438Z,68.36
2019-05-07T00:56:36.104Z,68.36
2019-05-07T00:59:05.986Z,68.47
2019-05-07T01:01:36.567Z,68.69
2019-05-07T01:04:06.474Z,68.70
2019-05-07T01:06:36.279Z,68.61
2019-05-07T01:09:08.216Z,68.64
2019-05-07T01:11:37.907Z,68.89
2019-05-07T01:14:07.717Z,68.85
2019-05-07T01:16:37.407Z,68.97
2019-05-07T01:19:07.058Z,69.27
2019-05-07T01:21:36.778Z,69.04
2019-05-07T01:24:06.576Z,69.49
2019-05-07T01:26:36.269Z,69.64
2019-05-07T01:29:06.064Z,69.55
2019-05-07T01:31:37.788Z,69.81
2019-05-07T01:34:27.290Z,69.83
2019-05-07T01:36:56.986Z,69.69
2019-05-07T01:39:26.719Z,70.16
2019-05-07T01:41:56.367Z,70.19
2019-05-07T01:44:26.038Z,70.45
2019-05-07T01:46:55.676Z,70.70
2019-05-07T01:49:25.476Z,70.87
2019-05-07T01:51:55.300Z,71.42
2019-05-07T01:54:24.978Z,71.86
2019-05-07T01:56:54.634Z,72.03
2019-05-07T01:59:24.420Z,72.39
2019-05-07T02:01:55.694Z,72.76
2019-05-07T02:04:42.742Z,73.37
2019-05-07T02:07:16.966Z,73.79
2019-05-07T02:09:48.369Z,74.33
2019-05-07T02:12:19.682Z,74.48
2019-05-07T02:14:49.379Z,74.47
2019-05-07T02:17:19.079Z,74.49
2019-05-07T02:19:48.787Z,74.78
2019-05-07T02:22:18.526Z,75.24
2019-05-07T02:24:48.236Z,75.36
2019-05-07T02:27:17.902Z,75.30
2019-05-07T02:29:47.585Z,75.34
2019-05-07T02:32:17.399Z,75.41
2019-05-07T02:34:47.121Z,75.44
2019-05-07T02:37:18.556Z,75.56
2019-05-07T02:39:48.071Z,75.65
2019-05-07T02:42:17.756Z,75.79
2019-05-07T02:45:04.165Z,75.67
2019-05-07T02:47:34.038Z,75.98
2019-05-07T02:50:06.581Z,76.07
2019-05-07T02:52:54.042Z,76.16
2019-05-07T02:55:28.233Z,76.72
2019-05-07T02:57:57.970Z,77.40
2019-05-07T03:00:27.784Z,77.37
2019-05-07T03:02:57.771Z,77.19
2019-05-07T03:05:27.561Z,76.95
2019-05-07T03:07:57.322Z,76.92
2019-05-07T03:10:27.232Z,76.46
2019-05-07T03:12:56.973Z,76.50
2019-05-07T03:15:26.618Z,76.75
2019-05-07T03:17:56.513Z,77.11
2019-05-07T03:20:33.362Z,77.35
2019-05-07T03:23:03.239Z,78.06
2019-05-07T03:25:48.040Z,78.02
2019-05-07T03:28:18.968Z,77.97
2019-05-07T03:30:59.069Z,77.32
2019-05-07T03:33:39.519Z,77.58
2019-05-07T03:36:16.671Z,77.57
2019-05-07T03:38:44.165Z,77.60
2019-05-07T03:41:13.880Z,77.39
2019-05-07T03:43:44.202Z,77.40
2019-05-07T03:46:15.474Z,77.37
2019-05-07T03:48:46.568Z,77.33
2019-05-07T03:51:16.273Z,77.17
2019-05-07T03:53:46.036Z,77.14
2019-05-07T03:56:15.704Z,77.58
2019-05-07T03:58:45.409Z,77.87
2019-05-07T04:01:15.081Z,78.01
2019-05-07T04:03:46.319Z,77.98
2019-05-07T04:06:16.105Z,77.96
2019-05-07T04:08:45.879Z,77.79
2019-05-07T04:11:15.690Z,77.30
2019-05-07T04:13:45.639Z,77.60
2019-05-07T04:16:15.628Z,78.15
2019-05-07T04:18:45.372Z,78.72
2019-05-07T04:21:15.073Z,79.18
2019-05-07T04:23:44.777Z,79.36
2019-05-07T04:26:23.216Z,79.24
2019-05-07T04:29:04.879Z,79.00
2019-05-07T04:31:34.393Z,78.96
2019-05-07T04:34:06.412Z,79.27
2019-05-07T04:36:37.855Z,79.44
2019-05-07T04:39:09.247Z,79.66
2019-05-07T04:41:38.986Z,79.60
2019-05-07T04:44:08.842Z,79.63
2019-05-07T04:46:38.726Z,79.75
2019-05-07T04:49:08.578Z,79.75
2019-05-07T04:51:43.108Z,79.61
2019-05-07T04:54:13.143Z,79.66
2019-05-07T04:56:44.069Z,79.30
2019-05-07T04:59:13.768Z,78.86
2019-05-07T05:01:45.091Z,78.59
2019-05-07T05:04:25.458Z,78.14
2019-05-07T05:06:46.211Z,78.11
2019-05-07T05:09:16.245Z,78.19
2019-05-07T05:11:46.964Z,77.86
2019-05-07T05:14:16.785Z,77.67
2019-05-07T05:16:46.480Z,77.08
2019-05-07T05:19:34.311Z,76.49
2019-05-07T05:22:08.622Z,75.88
2019-05-07T05:24:48.886Z,75.29
2019-05-07T05:27:18.603Z,74.95
2019-05-07T05:29:48.382Z,74.56
2019-05-07T05:32:18.044Z,74.16
2019-05-07T05:34:47.839Z,73.93
2019-05-07T05:37:17.509Z,73.61
2019-05-07T05:39:47.206Z,73.49
2019-05-07T05:42:27.351Z,72.90
2019-05-07T05:44:57.105Z,72.02
2019-05-07T05:47:26.846Z,71.31
2019-05-07T05:49:56.524Z,71.02
2019-05-07T05:52:27.818Z,70.75
2019-05-07T05:54:59.266Z,70.45
2019-05-07T05:57:32.296Z,69.49
2019-05-07T06:00:13.870Z,69.14
2019-05-07T06:02:53.157Z,68.85
2019-05-07T06:05:42.846Z,68.42
2019-05-07T06:08:17.637Z,68.12
2019-05-07T06:10:49.193Z,67.95
2019-05-07T06:13:36.243Z,67.96
2019-05-07T06:16:07.590Z,67.20
2019-05-07T06:18:47.729Z,66.55
2019-05-07T06:21:26.333Z,66.55
2019-05-07T06:23:57.625Z,66.49
2019-05-07T06:26:27.468Z,66.42
2019-05-07T06:28:57.289Z,66.37
2019-05-07T06:31:27.158Z,65.62
2019-05-07T06:33:56.843Z,65.80
2019-05-07T06:36:29.633Z,66.01
2019-05-07T06:39:03.719Z,65.21
2019-05-07T06:41:52.560Z,65.41
2019-05-07T06:44:23.259Z,65.47
2019-05-07T06:46:52.943Z,65.14
2019-05-07T06:49:22.750Z,64.60
2019-05-07T06:51:52.934Z,63.31
2019-05-07T06:54:22.857Z,62.99
2019-05-07T06:56:52.668Z,62.67
2019-05-07T06:59:42.440Z,62.09
2019-05-07T07:02:25.336Z,61.44
2019-05-07T07:04:56.822Z,61.00
2019-05-07T07:07:37.296Z,60.59
2019-05-07T07:10:11.953Z,60.04
2019-05-07T07:12:42.462Z,59.59
2019-05-07T07:15:12.566Z,59.29
2019-05-07T07:17:42.731Z,59.35
2019-05-07T07:20:14.124Z,59.26
2019-05-07T07:22:43.943Z,58.66
2019-05-07T07:25:13.858Z,58.44
2019-05-07T07:27:43.600Z,58.38
2019-05-07T07:30:32.625Z,57.71
2019-05-07T07:33:04.074Z,57.62
2019-05-07T07:35:33.837Z,57.95
2019-05-07T07:38:05.340Z,57.41
2019-05-07T07:40:39.452Z,56.55
2019-05-07T07:43:09.274Z,56.63
2019-05-07T07:45:39.306Z,57.34
2019-05-07T07:48:09.025Z,57.16
2019-05-07T07:50:38.921Z,56.54
2019-05-07T07:53:08.637Z,56.43
2019-05-07T07:55:39.966Z,55.55
2019-05-07T07:58:12.069Z,55.43
2019-05-07T08:00:42.858Z,55.52
2019-05-07T08:03:14.342Z,55.30
2019-05-07T08:05:44.245Z,54.74
2019-05-07T08:08:13.972Z,54.27
2019-05-07T08:10:44.265Z,54.37
2019-05-07T08:13:14.044Z,55.17
2019-05-07T08:15:43.865Z,55.92
2019-05-07T08:18:13.686Z,56.31
2019-05-07T08:20:43.618Z,56.85
2019-05-07T08:23:13.516Z,56.87
2019-05-07T08:25:48.981Z,56.69
2019-05-07T08:28:22.786Z,56.51
2019-05-07T08:30:53.466Z,56.58
2019-05-07T08:33:24.835Z,57.03
2019-05-07T08:36:14.308Z,56.46
2019-05-07T08:38:52.834Z,55.80
2019-05-07T08:41:24.901Z,55.78
2019-05-07T08:44:08.309Z,55.59
2019-05-07T08:46:33.016Z,55.23
2019-05-07T08:49:02.812Z,55.46
2019-05-07T08:51:32.751Z,54.97
2019-05-07T08:54:05.211Z,54.70
2019-05-07T08:56:38.484Z,54.09
2019-05-07T08:59:08.778Z,54.11
2019-05-07T09:01:43.279Z,53.84
2019-05-07T09:04:13.420Z,53.04
2019-05-07T09:06:43.433Z,52.69
2019-05-07T09:09:14.795Z,52.85
2019-05-07T09:11:44.693Z,52.86
2019-05-07T09:14:14.647Z,53.59
2019-05-07T09:16:44.366Z,53.77
2019-05-07T09:19:14.146Z,55.64
2019-05-07T09:21:44.102Z,54.42
2019-05-07T09:24:14.149Z,54.92
2019-05-07T09:26:49.486Z,55.55
2019-05-07T09:29:37.247Z,54.67
2019-05-07T09:32:24.865Z,54.55
2019-05-07T09:34:56.264Z,53.99
2019-05-07T09:37:33.225Z,53.65
2019-05-07T09:40:03.180Z,53.81
2019-05-07T09:42:33.498Z,54.12
2019-05-07T09:45:04.192Z,54.05
2019-05-07T09:47:33.889Z,54.92
2019-05-07T09:50:08.024Z,55.80
2019-05-07T09:52:36.175Z,55.78
2019-05-07T09:55:14.904Z,54.77
2019-05-07T09:57:39.531Z,55.15
2019-05-07T10:00:12.375Z,55.14
2019-05-07T10:02:42.669Z,56.44
2019-05-07T10:05:14.044Z,58.13
2019-05-07T10:07:43.964Z,59.01
2019-05-07T10:10:14.159Z,59.08
2019-05-07T10:12:45.745Z,58.67
2019-05-07T10:15:15.977Z,58.41
2019-05-07T10:17:47.692Z,58.46
2019-05-07T10:20:22.382Z,58.65
2019-05-07T10:22:51.873Z,58.71
2019-05-07T10:25:22.437Z,58.91
2019-05-07T10:27:53.207Z,57.13
2019-05-07T10:30:23.213Z,57.07
2019-05-07T10:32:53.182Z,57.34
2019-05-07T10:35:23.631Z,56.38
2019-05-07T10:37:53.358Z,56.20
2019-05-07T10:40:24.323Z,56.73
2019-05-07T10:42:54.270Z,56.29
2019-05-07T10:45:26.794Z,56.53
2019-05-07T10:47:56.557Z,55.72
2019-05-07T10:50:38.366Z,55.54
2019-05-07T10:53:02.525Z,55.94
2019-05-07T10:55:33.847Z,56.89
2019-05-07T10:58:03.579Z,58.22
2019-05-07T11:00:33.396Z,59.26
2019-05-07T11:03:03.139Z,59.96
2019-05-07T11:05:32.998Z,59.98
2019-05-07T11:08:02.837Z,60.41
2019-05-07T11:10:32.833Z,60.66
2019-05-07T11:13:02.730Z,61.25
2019-05-07T11:15:33.414Z,62.36
2019-05-07T11:18:05.141Z,62.83
2019-05-07T11:20:46.559Z,63.03
2019-05-07T11:23:06.459Z,62.13
2019-05-07T11:25:36.338Z,62.05
2019-05-07T11:28:06.483Z,61.66
2019-05-07T11:30:36.598Z,61.36
2019-05-07T11:33:06.516Z,60.01
2019-05-07T11:35:36.259Z,61.55
2019-05-07T11:38:17.748Z,61.54
2019-05-07T11:40:37.619Z,61.47
2019-05-07T11:43:13.054Z,60.89
2019-05-07T11:46:01.561Z,60.22
2019-05-07T11:48:33.559Z,59.42
2019-05-07T11:51:06.663Z,58.27
2019-05-07T11:53:41.910Z,57.68
2019-05-07T11:56:12.001Z,56.60
2019-05-07T11:58:42.074Z,55.70
2019-05-07T12:01:16.304Z,56.50
2019-05-07T12:03:45.995Z,55.77
2019-05-07T12:06:15.773Z,54.20
2019-05-07T12:08:51.387Z,53.85
2019-05-07T12:11:17.450Z,53.42
2019-05-07T12:13:47.210Z,52.93
2019-05-07T12:16:16.933Z,50.71
2019-05-07T12:18:46.641Z,49.76
2019-05-07T12:21:21.130Z,48.21
2019-05-07T12:23:47.981Z,47.15
2019-05-07T12:26:17.744Z,46.55
2019-05-07T12:28:47.578Z,46.05
2019-05-07T12:31:35.096Z,45.83
2019-05-07T12:34:06.515Z,45.35
2019-05-07T12:36:36.261Z,42.90
2019-05-07T12:39:08.819Z,44.16
2019-05-07T12:41:38.714Z,44.08
2019-05-07T12:44:13.001Z,43.84
2019-05-07T12:46:43.015Z,43.72
2019-05-07T12:49:12.927Z,42.97
2019-05-07T12:51:53.660Z,44.60
2019-05-07T12:54:42.067Z,44.29
2019-05-07T12:57:12.405Z,43.79
2019-05-07T12:59:42.681Z,43.47
2019-05-07T13:02:39.861Z,42.29
2019-05-07T13:05:02.907Z,41.65
2019-05-07T13:07:32.644Z,41.94
2019-05-07T13:10:02.734Z,41.88
2019-05-07T13:12:32.534Z,41.76
2019-05-07T13:15:02.937Z,43.27
2019-05-07T13:17:33.758Z,44.59
2019-05-07T13:20:05.385Z,44.83
2019-05-07T13:22:35.213Z,44.05
2019-05-07T13:25:06.903Z,44.42
2019-05-07T13:27:36.681Z,44.79
2019-05-07T13:30:07.781Z,43.30
2019-05-07T13:32:38.826Z,41.50
2019-05-07T13:35:09.508Z,41.22
2019-05-07T13:37:45.462Z,39.69
2019-05-07T13:40:21.948Z,39.10
2019-05-07T13:42:53.648Z,38.91
2019-05-07T13:45:27.610Z,38.38
2019-05-07T13:48:17.587Z,38.24
2019-05-07T13:50:47.690Z,38.31
2019-05-07T13:53:17.796Z,38.58
2019-05-07T13:55:47.670Z,39.89
2019-05-07T13:58:17.672Z,39.77
2019-05-07T14:00:59.416Z,37.81
2019-05-07T14:03:29.320Z,40.94
2019-05-07T14:05:59.345Z,36.41
2019-05-07T14:08:32.038Z,36.17
2019-05-07T14:11:02.764Z,37.02
2019-05-07T14:13:33.311Z,37.06
2019-05-07T14:16:09.371Z,37.56
2019-05-07T14:18:39.966Z,37.57
2019-05-07T14:21:12.804Z,38.09
2019-05-07T14:23:42.790Z,37.83
2019-05-07T14:26:12.675Z,38.54
2019-05-07T14:28:42.636Z,38.18
2019-05-07T14:31:12.455Z,38.71
2019-05-07T14:33:41.941Z,39.92
2019-05-07T14:36:19.323Z,41.39
2019-05-07T14:38:52.022Z,42.88
2019-05-07T14:41:25.291Z,43.28
2019-05-07T14:43:56.087Z,44.55
2019-05-07T14:46:25.952Z,42.88
2019-05-07T14:48:55.910Z,43.34
2019-05-07T14:51:25.792Z,44.13
2019-05-07T14:53:55.768Z,43.67
2019-05-07T14:56:25.581Z,43.55
2019-05-07T14:58:55.623Z,43.10
2019-05-07T15:01:25.957Z,42.74
2019-05-07T15:03:55.907Z,42.56
2019-05-07T15:06:26.008Z,42.51
2019-05-07T15:08:56.603Z,42.66
2019-05-07T15:11:26.671Z,42.87
2019-05-07T15:13:56.505Z,41.08
2019-05-07T15:16:26.558Z,41.48
2019-05-07T15:18:57.633Z,41.69
2019-05-07T15:21:27.699Z,42.19
2019-05-07T15:23:57.615Z,42.79
2019-05-07T15:26:27.608Z,43.58
2019-05-07T15:29:02.289Z,43.07
2019-05-07T15:31:34.856Z,43.31
2019-05-07T15:34:04.677Z,43.05
2019-05-07T15:36:34.372Z,42.78
2019-05-07T15:39:05.184Z,42.90
2019-05-07T15:41:35.009Z,42.98
2019-05-07T15:44:04.882Z,42.70
2019-05-07T15:46:34.708Z,42.78
2019-05-07T15:49:04.580Z,42.39
2019-05-07T15:51:34.370Z,41.79
2019-05-07T15:54:04.258Z,42.29
2019-05-07T15:56:34.071Z,41.16
2019-05-07T15:59:03.785Z,40.63
2019-05-07T16:01:33.589Z,40.68
2019-05-07T16:04:03.486Z,41.46
2019-05-07T16:06:33.277Z,42.08
2019-05-07T16:09:04.665Z,42.18
2019-05-07T16:11:34.603Z,42.62
2019-05-07T16:14:04.465Z,42.31
2019-05-07T16:16:35.960Z,41.76
2019-05-07T16:19:12.486Z,41.85
2019-05-07T16:21:42.615Z,42.19
2019-05-07T16:24:12.499Z,42.52
2019-05-07T16:26:42.406Z,44.49
2019-05-07T16:29:13.320Z,43.45
2019-05-07T16:31:44.218Z,43.62
2019-05-07T16:34:14.170Z,43.63
2019-05-07T16:36:44.512Z,43.89
2019-05-07T16:39:14.333Z,44.11
2019-05-07T16:41:44.101Z,44.50
2019-05-07T16:44:13.815Z,43.00
2019-05-07T16:46:43.569Z,42.96
2019-05-07T16:49:13.565Z,42.52
2019-05-07T16:51:44.685Z,41.52
2019-05-07T16:54:14.646Z,41.83
2019-05-07T16:57:03.119Z,42.21
2019-05-07T16:59:32.997Z,42.11
2019-05-07T17:02:04.402Z,42.50
2019-05-07T17:04:34.059Z,42.92
2019-05-07T17:07:05.438Z,42.90
2019-05-07T17:09:35.574Z,42.85
2019-05-07T17:12:06.971Z,43.17
2019-05-07T17:14:36.712Z,43.49
2019-05-07T17:17:06.446Z,43.88
2019-05-07T17:19:36.137Z,44.39
2019-05-07T17:22:06.627Z,44.77
2019-05-07T17:24:36.554Z,44.60
2019-05-07T17:27:06.340Z,44.72
2019-05-07T17:29:36.192Z,44.81
2019-05-07T17:32:06.005Z,44.53
2019-05-07T17:34:35.712Z,44.73
2019-05-07T17:37:05.448Z,44.97
2019-05-07T17:39:35.212Z,45.21
2019-05-07T17:42:05.091Z,45.50
2019-05-07T17:44:34.824Z,46.06
2019-05-07T17:47:04.694Z,46.54
2019-05-07T17:49:36.486Z,47.04
2019-05-07T17:52:05.932Z,46.50
2019-05-07T17:54:35.601Z,46.58
2019-05-07T17:57:05.338Z,46.45
2019-05-07T17:59:35.030Z,46.62
2019-05-07T18:02:08.951Z,47.12
2019-05-07T18:04:50.613Z,47.54
2019-05-07T18:07:11.942Z,47.55
2019-05-07T18:09:42.388Z,47.74
2019-05-07T18:12:12.476Z,47.89
2019-05-07T18:14:42.506Z,48.15
2019-05-07T18:17:14.038Z,48.34
2019-05-07T18:19:44.773Z,48.72
2019-05-07T18:22:14.851Z,48.96
2019-05-07T18:24:44.603Z,49.16
2019-05-07T18:27:16.108Z,49.35
2019-05-07T18:29:45.775Z,49.64
2019-05-07T18:32:15.430Z,50.03
2019-05-07T18:34:45.177Z,50.20
2019-05-07T18:37:15.052Z,50.28
2019-05-07T18:39:44.822Z,50.30
2019-05-07T18:42:14.660Z,50.32
2019-05-07T18:44:44.545Z,50.56
2019-05-07T18:47:14.295Z,50.50
2019-05-07T18:49:44.860Z,50.56
2019-05-07T18:52:14.727Z,50.95
2019-05-07T18:54:44.440Z,51.33
2019-05-07T18:57:14.292Z,51.80
2019-05-07T18:59:45.543Z,52.13
2019-05-07T19:02:15.978Z,52.56
2019-05-07T19:04:45.780Z,52.80
2019-05-07T19:07:18.038Z,53.05
2019-05-07T19:09:47.936Z,53.26
2019-05-07T19:12:18.111Z,53.58
2019-05-07T19:14:47.907Z,54.46
2019-05-07T19:17:17.877Z,55.05
2019-05-07T19:19:47.535Z,55.33
2019-05-07T19:22:17.223Z,55.70
2019-05-07T19:24:48.154Z,56.25
2019-05-07T19:27:18.159Z,56.43
2019-05-07T19:29:47.838Z,56.62
2019-05-07T19:32:17.832Z,57.11
2019-05-07T19:34:48.018Z,57.52
2019-05-07T19:37:17.730Z,58.05
2019-05-07T19:39:47.532Z,58.67
2019-05-07T19:42:17.286Z,59.03
2019-05-07T19:44:46.984Z,59.30
2019-05-07T19:47:16.870Z,59.43
2019-05-07T19:49:46.639Z,59.34
2019-05-07T19:52:16.313Z,59.74
2019-05-07T19:54:58.004Z,60.23
2019-05-07T19:57:23.113Z,60.72
2019-05-07T19:59:53.064Z,60.80
2019-05-07T20:02:26.938Z,60.92
2019-05-07T20:04:56.055Z,61.04
2019-05-07T20:07:25.726Z,61.31
2019-05-07T20:09:55.526Z,61.47
2019-05-07T20:12:25.307Z,61.45
2019-05-07T20:14:54.960Z,61.39
2019-05-07T20:17:24.735Z,61.54
2019-05-07T20:19:54.478Z,61.51
2019-05-07T20:22:24.252Z,61.96
2019-05-07T20:24:53.899Z,62.14
2019-05-07T20:27:23.605Z,62.33
2019-05-07T20:29:53.603Z,62.46
2019-05-07T20:32:23.423Z,62.55
2019-05-07T20:34:53.398Z,63.14
2019-05-07T20:37:23.128Z,63.55
2019-05-07T20:39:52.815Z,63.86
2019-05-07T20:42:23.210Z,64.17
2019-05-07T20:44:53.998Z,64.32
2019-05-07T20:47:23.658Z,64.35
2019-05-07T20:49:53.462Z,64.80
2019-05-07T20:52:23.385Z,65.46
2019-05-07T20:55:00.557Z,65.34
2019-05-07T20:57:32.081Z,65.65
2019-05-07T21:00:02.765Z,65.53
2019-05-07T21:02:44.379Z,65.49
2019-05-07T21:05:05.091Z,65.75
2019-05-07T21:07:35.137Z,66.32
2019-05-07T21:10:06.650Z,66.21
2019-05-07T21:12:36.461Z,66.52
2019-05-07T21:15:08.146Z,66.26
2019-05-07T21:17:37.892Z,66.27
2019-05-07T21:20:08.835Z,66.09
2019-05-07T21:22:38.518Z,66.17
2019-05-07T21:25:08.259Z,66.19
2019-05-07T21:27:37.922Z,66.31
2019-05-07T21:30:08.352Z,66.21
2019-05-07T21:32:37.996Z,66.44
2019-05-07T21:35:07.840Z,66.15
2019-05-07T21:37:37.588Z,66.35
2019-05-07T21:40:08.294Z,66.34
2019-05-07T21:42:38.035Z,66.11
2019-05-07T21:45:08.934Z,66.22
2019-05-07T21:47:38.726Z,66.15
2019-05-07T21:50:09.617Z,66.09
2019-05-07T21:52:43.799Z,65.81
2019-05-07T21:55:15.485Z,66.03
2019-05-07T21:57:54.529Z,66.46
2019-05-07T22:00:26.102Z,66.71
2019-05-07T22:02:56.350Z,66.90
2019-05-07T22:05:26.170Z,67.02
2019-05-07T22:07:56.024Z,66.85
2019-05-07T22:10:25.664Z,66.69
2019-05-07T22:12:55.340Z,66.50
2019-05-07T22:15:25.036Z,66.35
2019-05-07T22:17:54.735Z,66.44
2019-05-07T22:20:24.545Z,66.08
2019-05-07T22:22:54.297Z,66.42
2019-05-07T22:25:23.975Z,66.21
2019-05-07T22:27:53.687Z,65.79
2019-05-07T22:30:25.118Z,65.57
2019-05-07T22:32:58.909Z,65.20
2019-05-07T22:35:32.908Z,65.07
2019-05-07T22:38:03.908Z,64.75
2019-05-07T22:40:33.813Z,64.62
2019-05-07T22:43:03.493Z,64.31
2019-05-07T22:45:33.227Z,64.24
2019-05-07T22:48:03.027Z,64.05
2019-05-07T22:50:33.248Z,63.80
2019-05-07T22:53:03.177Z,63.26
2019-05-07T22:55:32.903Z,63.15
2019-05-07T22:58:06.738Z,63.25
2019-05-07T23:00:42.693Z,62.96
2019-05-07T23:03:12.797Z,62.90
2019-05-07T23:05:44.838Z,62.86
2019-05-07T23:08:13.887Z,62.79
2019-05-07T23:10:44.611Z,62.53
2019-05-07T23:13:14.402Z,62.55
2019-05-07T23:15:44.115Z,62.74
2019-05-07T23:18:13.801Z,62.63
2019-05-07T23:20:43.495Z,62.55
2019-05-07T23:23:14.225Z,62.34
2019-05-07T23:25:44.047Z,62.42
2019-05-07T23:28:13.742Z,62.08
2019-05-07T23:30:44.272Z,62.04
2019-05-07T23:33:14.178Z,62.17
2019-05-07T23:35:43.959Z,61.94
2019-05-07T23:38:15.885Z,61.77
2019-05-07T23:40:58.635Z,61.67
2019-05-07T23:43:28.475Z,61.61
2019-05-07T23:45:58.219Z,61.40
2019-05-07T23:48:27.977Z,61.42
2019-05-07T23:50:57.695Z,61.37
2019-05-07T23:53:27.443Z,61.06
2019-05-07T23:55:57.121Z,61.24
2019-05-07T23:58:26.831Z,61.11
